sensor_id;sensor_type;location;lat;lon;timestamp;P1;durP1;ratioP1;P2;durP2;ratioP2
49217;SDS011;35045;51.194;7.268;2023-05-19T00:01:41;7.80;;;3.05;;
49217;SDS011;35045;51.194;7.268;2023-05-19T00:04:13;7.47;;;3.08;;
49217;SDS011;35045;51.194;7.268;2023-05-19T00:06:40;8.32;;;3.33;;
49217;SDS011;35045;51.194;7.268;2023-05-19T00:09:07;7.57;;;2.85;;
49217;SDS011;35045;51.194;7.268;2023-05-19T00:11:35;9.43;;;3.13;;
49217;SDS011;35045;51.194;7.268;2023-05-19T00:14:03;9.35;;;3.22;;
49217;SDS011;35045;51.194;7.268;2023-05-19T00:16:31;9.98;;;3.50;;
49217;SDS011;35045;51.194;7.268;2023-05-19T00:18:59;7.22;;;3.00;;
49217;SDS011;35045;51.194;7.268;2023-05-19T00:21:27;9.30;;;3.30;;
49217;SDS011;35045;51.194;7.268;2023-05-19T00:23:54;7.63;;;2.88;;
49217;SDS011;35045;51.194;7.268;2023-05-19T00:26:20;8.80;;;3.25;;
49217;SDS011;35045;51.194;7.268;2023-05-19T00:28:50;8.02;;;3.10;;
49217;SDS011;35045;51.194;7.268;2023-05-19T00:31:17;9.48;;;2.90;;
49217;SDS011;35045;51.194;7.268;2023-05-19T00:33:43;9.15;;;2.75;;
49217;SDS011;35045;51.194;7.268;2023-05-19T00:36:09;7.90;;;2.90;;
49217;SDS011;35045;51.194;7.268;2023-05-19T00:38:36;15.20;;;3.08;;
49217;SDS011;35045;51.194;7.268;2023-05-19T00:41:03;8.00;;;3.03;;
49217;SDS011;35045;51.194;7.268;2023-05-19T00:43:31;8.50;;;2.85;;
49217;SDS011;35045;51.194;7.268;2023-05-19T00:46:01;7.90;;;3.40;;
49217;SDS011;35045;51.194;7.268;2023-05-19T00:48:27;8.18;;;3.30;;
49217;SDS011;35045;51.194;7.268;2023-05-19T00:50:54;7.82;;;3.20;;
49217;SDS011;35045;51.194;7.268;2023-05-19T00:53:26;9.32;;;2.95;;
49217;SDS011;35045;51.194;7.268;2023-05-19T00:55:53;9.45;;;2.97;;
49217;SDS011;35045;51.194;7.268;2023-05-19T00:58:20;9.50;;;3.00;;
49217;SDS011;35045;51.194;7.268;2023-05-19T01:00:48;10.38;;;2.72;;
49217;SDS011;35045;51.194;7.268;2023-05-19T01:03:15;6.18;;;2.40;;
49217;SDS011;35045;51.194;7.268;2023-05-19T01:05:45;7.13;;;3.20;;
49217;SDS011;35045;51.194;7.268;2023-05-19T01:08:12;7.45;;;2.92;;
49217;SDS011;35045;51.194;7.268;2023-05-19T01:10:38;11.18;;;2.95;;
49217;SDS011;35045;51.194;7.268;2023-05-19T01:13:04;8.00;;;2.80;;
49217;SDS011;35045;51.194;7.268;2023-05-19T01:15:39;7.55;;;3.20;;
49217;SDS011;35045;51.194;7.268;2023-05-19T01:18:39;6.65;;;2.80;;
49217;SDS011;35045;51.194;7.268;2023-05-19T01:24:01;11.35;;;3.10;;
49217;SDS011;35045;51.194;7.268;2023-05-19T01:29:44;9.77;;;2.92;;
49217;SDS011;35045;51.194;7.268;2023-05-19T01:32:13;5.95;;;2.58;;
49217;SDS011;35045;51.194;7.268;2023-05-19T01:34:44;7.57;;;2.83;;
49217;SDS011;35045;51.194;7.268;2023-05-19T01:37:13;9.18;;;3.08;;
49217;SDS011;35045;51.194;7.268;2023-05-19T01:39:41;7.75;;;2.92;;
49217;SDS011;35045;51.194;7.268;2023-05-19T01:42:10;7.20;;;2.95;;
49217;SDS011;35045;51.194;7.268;2023-05-19T01:44:37;6.78;;;2.70;;
49217;SDS011;35045;51.194;7.268;2023-05-19T01:47:04;8.38;;;2.75;;
49217;SDS011;35045;51.194;7.268;2023-05-19T01:49:30;9.35;;;2.90;;
49217;SDS011;35045;51.194;7.268;2023-05-19T01:51:56;9.95;;;2.90;;
49217;SDS011;35045;51.194;7.268;2023-05-19T01:54:22;7.68;;;2.83;;
49217;SDS011;35045;51.194;7.268;2023-05-19T01:56:51;6.57;;;2.80;;
49217;SDS011;35045;51.194;7.268;2023-05-19T01:59:26;8.18;;;2.92;;
49217;SDS011;35045;51.194;7.268;2023-05-19T02:01:57;9.30;;;3.05;;
49217;SDS011;35045;51.194;7.268;2023-05-19T02:04:32;7.25;;;2.50;;
49217;SDS011;35045;51.194;7.268;2023-05-19T02:12:36;6.70;;;2.42;;
49217;SDS011;35045;51.194;7.268;2023-05-19T02:15:19;9.33;;;2.80;;
49217;SDS011;35045;51.194;7.268;2023-05-19T02:17:50;8.30;;;2.53;;
49217;SDS011;35045;51.194;7.268;2023-05-19T02:20:20;7.10;;;2.75;;
49217;SDS011;35045;51.194;7.268;2023-05-19T02:22:49;8.52;;;2.80;;
49217;SDS011;35045;51.194;7.268;2023-05-19T02:25:15;8.10;;;2.80;;
49217;SDS011;35045;51.194;7.268;2023-05-19T02:27:41;7.90;;;2.88;;
49217;SDS011;35045;51.194;7.268;2023-05-19T02:30:08;7.65;;;3.15;;
49217;SDS011;35045;51.194;7.268;2023-05-19T02:32:34;7.40;;;2.78;;
49217;SDS011;35045;51.194;7.268;2023-05-19T02:35:01;5.80;;;2.42;;
49217;SDS011;35045;51.194;7.268;2023-05-19T02:37:28;6.53;;;2.90;;
49217;SDS011;35045;51.194;7.268;2023-05-19T02:39:55;6.78;;;2.30;;
49217;SDS011;35045;51.194;7.268;2023-05-19T02:42:21;7.00;;;2.47;;
49217;SDS011;35045;51.194;7.268;2023-05-19T02:44:48;7.85;;;2.80;;
49217;SDS011;35045;51.194;7.268;2023-05-19T02:47:14;8.20;;;2.90;;
49217;SDS011;35045;51.194;7.268;2023-05-19T02:49:40;7.78;;;2.72;;
49217;SDS011;35045;51.194;7.268;2023-05-19T02:52:07;6.68;;;2.50;;
49217;SDS011;35045;51.194;7.268;2023-05-19T02:54:33;7.18;;;2.75;;
49217;SDS011;35045;51.194;7.268;2023-05-19T02:57:01;8.95;;;2.95;;
49217;SDS011;35045;51.194;7.268;2023-05-19T02:59:27;6.97;;;2.90;;
49217;SDS011;35045;51.194;7.268;2023-05-19T03:01:54;9.60;;;2.60;;
49217;SDS011;35045;51.194;7.268;2023-05-19T03:04:21;6.95;;;2.75;;
49217;SDS011;35045;51.194;7.268;2023-05-19T03:06:47;8.30;;;3.20;;
49217;SDS011;35045;51.194;7.268;2023-05-19T03:09:13;7.95;;;2.70;;
49217;SDS011;35045;51.194;7.268;2023-05-19T03:11:39;5.72;;;2.50;;
49217;SDS011;35045;51.194;7.268;2023-05-19T03:14:06;10.00;;;2.60;;
49217;SDS011;35045;51.194;7.268;2023-05-19T03:16:34;6.80;;;2.50;;
49217;SDS011;35045;51.194;7.268;2023-05-19T03:19:00;5.97;;;2.50;;
49217;SDS011;35045;51.194;7.268;2023-05-19T03:21:26;7.90;;;2.78;;
49217;SDS011;35045;51.194;7.268;2023-05-19T03:23:53;9.80;;;2.88;;
49217;SDS011;35045;51.194;7.268;2023-05-19T03:26:19;9.43;;;2.80;;
49217;SDS011;35045;51.194;7.268;2023-05-19T03:28:47;9.55;;;2.80;;
49217;SDS011;35045;51.194;7.268;2023-05-19T03:31:13;7.78;;;2.85;;
49217;SDS011;35045;51.194;7.268;2023-05-19T03:33:40;9.77;;;2.75;;
49217;SDS011;35045;51.194;7.268;2023-05-19T03:36:07;7.22;;;3.05;;
49217;SDS011;35045;51.194;7.268;2023-05-19T03:38:33;9.60;;;3.20;;
49217;SDS011;35045;51.194;7.268;2023-05-19T03:40:59;11.05;;;3.25;;
49217;SDS011;35045;51.194;7.268;2023-05-19T03:43:25;6.88;;;2.83;;
49217;SDS011;35045;51.194;7.268;2023-05-19T03:45:51;6.93;;;2.80;;
49217;SDS011;35045;51.194;7.268;2023-05-19T03:48:18;6.45;;;2.45;;
49217;SDS011;35045;51.194;7.268;2023-05-19T03:50:45;8.77;;;3.50;;
49217;SDS011;35045;51.194;7.268;2023-05-19T03:53:13;10.05;;;3.25;;
49217;SDS011;35045;51.194;7.268;2023-05-19T03:55:39;10.18;;;3.22;;
49217;SDS011;35045;51.194;7.268;2023-05-19T03:58:05;8.43;;;3.00;;
49217;SDS011;35045;51.194;7.268;2023-05-19T04:00:31;7.68;;;2.45;;
49217;SDS011;35045;51.194;7.268;2023-05-19T04:02:57;8.00;;;2.78;;
49217;SDS011;35045;51.194;7.268;2023-05-19T04:05:24;7.30;;;2.72;;
49217;SDS011;35045;51.194;7.268;2023-05-19T04:07:51;9.90;;;3.00;;
49217;SDS011;35045;51.194;7.268;2023-05-19T04:10:17;5.65;;;2.70;;
49217;SDS011;35045;51.194;7.268;2023-05-19T04:12:44;8.55;;;2.92;;
49217;SDS011;35045;51.194;7.268;2023-05-19T04:15:10;8.00;;;2.60;;
49217;SDS011;35045;51.194;7.268;2023-05-19T04:17:37;8.27;;;2.83;;
49217;SDS011;35045;51.194;7.268;2023-05-19T04:20:03;7.03;;;3.13;;
49217;SDS011;35045;51.194;7.268;2023-05-19T04:22:31;8.82;;;3.00;;
49217;SDS011;35045;51.194;7.268;2023-05-19T04:24:57;9.65;;;2.78;;
49217;SDS011;35045;51.194;7.268;2023-05-19T04:27:23;6.80;;;2.58;;
49217;SDS011;35045;51.194;7.268;2023-05-19T04:29:50;10.88;;;2.90;;
49217;SDS011;35045;51.194;7.268;2023-05-19T04:32:17;6.43;;;2.28;;
49217;SDS011;35045;51.194;7.268;2023-05-19T04:34:43;6.82;;;2.70;;
49217;SDS011;35045;51.194;7.268;2023-05-19T04:37:11;8.75;;;2.30;;
49217;SDS011;35045;51.194;7.268;2023-05-19T04:39:39;12.75;;;3.05;;
49217;SDS011;35045;51.194;7.268;2023-05-19T04:42:08;5.85;;;2.38;;
49217;SDS011;35045;51.194;7.268;2023-05-19T04:44:36;6.70;;;2.80;;
49217;SDS011;35045;51.194;7.268;2023-05-19T04:47:05;7.78;;;2.53;;
49217;SDS011;35045;51.194;7.268;2023-05-19T04:49:34;10.23;;;3.47;;
49217;SDS011;35045;51.194;7.268;2023-05-19T04:52:06;9.13;;;2.85;;
49217;SDS011;35045;51.194;7.268;2023-05-19T04:54:35;7.53;;;2.50;;
49217;SDS011;35045;51.194;7.268;2023-05-19T04:57:02;8.32;;;2.63;;
49217;SDS011;35045;51.194;7.268;2023-05-19T04:59:29;10.15;;;2.70;;
49217;SDS011;35045;51.194;7.268;2023-05-19T05:01:55;8.68;;;2.38;;
49217;SDS011;35045;51.194;7.268;2023-05-19T05:04:22;7.10;;;2.90;;
49217;SDS011;35045;51.194;7.268;2023-05-19T05:06:48;9.57;;;2.58;;
49217;SDS011;35045;51.194;7.268;2023-05-19T05:09:15;8.02;;;2.47;;
49217;SDS011;35045;51.194;7.268;2023-05-19T05:11:42;7.20;;;2.63;;
49217;SDS011;35045;51.194;7.268;2023-05-19T05:14:09;6.00;;;2.35;;
49217;SDS011;35045;51.194;7.268;2023-05-19T05:16:36;8.68;;;2.85;;
49217;SDS011;35045;51.194;7.268;2023-05-19T05:19:02;9.55;;;2.58;;
49217;SDS011;35045;51.194;7.268;2023-05-19T05:21:29;8.05;;;2.53;;
49217;SDS011;35045;51.194;7.268;2023-05-19T05:23:56;9.80;;;3.05;;
49217;SDS011;35045;51.194;7.268;2023-05-19T05:26:23;7.00;;;2.50;;
49217;SDS011;35045;51.194;7.268;2023-05-19T05:28:55;8.45;;;2.45;;
49217;SDS011;35045;51.194;7.268;2023-05-19T05:31:21;8.20;;;2.65;;
49217;SDS011;35045;51.194;7.268;2023-05-19T05:33:47;9.75;;;2.63;;
49217;SDS011;35045;51.194;7.268;2023-05-19T05:36:13;9.65;;;3.03;;
49217;SDS011;35045;51.194;7.268;2023-05-19T05:38:40;11.40;;;2.95;;
49217;SDS011;35045;51.194;7.268;2023-05-19T05:41:06;8.50;;;2.72;;
49217;SDS011;35045;51.194;7.268;2023-05-19T05:43:32;7.47;;;2.70;;
49217;SDS011;35045;51.194;7.268;2023-05-19T05:45:59;8.75;;;2.53;;
49217;SDS011;35045;51.194;7.268;2023-05-19T05:48:25;7.65;;;2.85;;
49217;SDS011;35045;51.194;7.268;2023-05-19T05:50:52;9.43;;;2.78;;
49217;SDS011;35045;51.194;7.268;2023-05-19T05:53:19;8.07;;;2.35;;
49217;SDS011;35045;51.194;7.268;2023-05-19T05:55:46;6.45;;;2.30;;
49217;SDS011;35045;51.194;7.268;2023-05-19T05:58:13;7.45;;;2.38;;
49217;SDS011;35045;51.194;7.268;2023-05-19T06:00:41;8.10;;;2.40;;
49217;SDS011;35045;51.194;7.268;2023-05-19T06:03:08;8.50;;;2.33;;
49217;SDS011;35045;51.194;7.268;2023-05-19T06:05:36;5.97;;;2.60;;
49217;SDS011;35045;51.194;7.268;2023-05-19T06:08:02;9.02;;;2.55;;
49217;SDS011;35045;51.194;7.268;2023-05-19T06:10:29;7.97;;;2.67;;
49217;SDS011;35045;51.194;7.268;2023-05-19T06:12:55;7.22;;;2.05;;
49217;SDS011;35045;51.194;7.268;2023-05-19T06:15:21;7.65;;;2.42;;
49217;SDS011;35045;51.194;7.268;2023-05-19T06:17:48;8.10;;;2.33;;
49217;SDS011;35045;51.194;7.268;2023-05-19T06:20:14;6.97;;;2.28;;
49217;SDS011;35045;51.194;7.268;2023-05-19T06:22:40;7.88;;;2.30;;
49217;SDS011;35045;51.194;7.268;2023-05-19T06:25:07;8.32;;;2.33;;
49217;SDS011;35045;51.194;7.268;2023-05-19T06:27:34;8.85;;;2.40;;
49217;SDS011;35045;51.194;7.268;2023-05-19T06:30:01;9.02;;;2.20;;
49217;SDS011;35045;51.194;7.268;2023-05-19T06:32:27;6.05;;;2.30;;
49217;SDS011;35045;51.194;7.268;2023-05-19T06:34:54;6.07;;;2.10;;
49217;SDS011;35045;51.194;7.268;2023-05-19T06:37:21;7.50;;;2.28;;
49217;SDS011;35045;51.194;7.268;2023-05-19T06:39:48;7.15;;;2.55;;
49217;SDS011;35045;51.194;7.268;2023-05-19T06:42:20;7.75;;;2.42;;
49217;SDS011;35045;51.194;7.268;2023-05-19T06:44:50;7.47;;;2.30;;
49217;SDS011;35045;51.194;7.268;2023-05-19T06:47:17;8.98;;;2.83;;
49217;SDS011;35045;51.194;7.268;2023-05-19T06:49:44;7.68;;;2.25;;
49217;SDS011;35045;51.194;7.268;2023-05-19T06:52:10;12.02;;;2.60;;
49217;SDS011;35045;51.194;7.268;2023-05-19T06:54:37;4.57;;;1.70;;
49217;SDS011;35045;51.194;7.268;2023-05-19T06:57:03;7.78;;;1.75;;
49217;SDS011;35045;51.194;7.268;2023-05-19T06:59:29;9.73;;;2.75;;
49217;SDS011;35045;51.194;7.268;2023-05-19T07:01:55;6.40;;;2.10;;
49217;SDS011;35045;51.194;7.268;2023-05-19T07:04:21;7.82;;;2.40;;
49217;SDS011;35045;51.194;7.268;2023-05-19T07:06:48;6.80;;;2.30;;
49217;SDS011;35045;51.194;7.268;2023-05-19T07:09:14;6.53;;;2.33;;
49217;SDS011;35045;51.194;7.268;2023-05-19T07:11:41;6.82;;;2.42;;
49217;SDS011;35045;51.194;7.268;2023-05-19T07:14:07;5.35;;;1.70;;
49217;SDS011;35045;51.194;7.268;2023-05-19T07:16:33;6.18;;;1.83;;
49217;SDS011;35045;51.194;7.268;2023-05-19T07:19:00;6.72;;;2.17;;
49217;SDS011;35045;51.194;7.268;2023-05-19T07:21:26;8.13;;;2.35;;
49217;SDS011;35045;51.194;7.268;2023-05-19T07:23:52;5.93;;;2.28;;
49217;SDS011;35045;51.194;7.268;2023-05-19T07:26:18;5.57;;;1.95;;
49217;SDS011;35045;51.194;7.268;2023-05-19T07:28:44;8.68;;;2.17;;
49217;SDS011;35045;51.194;7.268;2023-05-19T07:31:10;6.97;;;2.05;;
49217;SDS011;35045;51.194;7.268;2023-05-19T07:33:36;8.60;;;2.38;;
49217;SDS011;35045;51.194;7.268;2023-05-19T07:36:03;6.63;;;1.85;;
49217;SDS011;35045;51.194;7.268;2023-05-19T07:38:29;5.75;;;2.00;;
49217;SDS011;35045;51.194;7.268;2023-05-19T07:40:59;4.55;;;1.67;;
49217;SDS011;35045;51.194;7.268;2023-05-19T07:43:26;7.55;;;2.40;;
49217;SDS011;35045;51.194;7.268;2023-05-19T07:45:53;6.72;;;2.40;;
49217;SDS011;35045;51.194;7.268;2023-05-19T07:48:21;6.75;;;2.40;;
49217;SDS011;35045;51.194;7.268;2023-05-19T07:50:49;6.45;;;2.28;;
49217;SDS011;35045;51.194;7.268;2023-05-19T07:53:15;8.00;;;2.22;;
49217;SDS011;35045;51.194;7.268;2023-05-19T07:55:42;7.88;;;2.00;;
49217;SDS011;35045;51.194;7.268;2023-05-19T07:58:08;6.28;;;2.00;;
49217;SDS011;35045;51.194;7.268;2023-05-19T08:00:34;6.88;;;1.70;;
49217;SDS011;35045;51.194;7.268;2023-05-19T08:03:01;8.50;;;2.15;;
49217;SDS011;35045;51.194;7.268;2023-05-19T08:05:28;7.15;;;1.92;;
49217;SDS011;35045;51.194;7.268;2023-05-19T08:07:54;7.20;;;2.47;;
49217;SDS011;35045;51.194;7.268;2023-05-19T08:10:21;7.72;;;2.08;;
49217;SDS011;35045;51.194;7.268;2023-05-19T08:12:48;6.30;;;1.63;;
49217;SDS011;35045;51.194;7.268;2023-05-19T08:15:14;7.38;;;2.05;;
49217;SDS011;35045;51.194;7.268;2023-05-19T08:17:41;7.57;;;2.22;;
49217;SDS011;35045;51.194;7.268;2023-05-19T08:20:07;6.93;;;1.70;;
49217;SDS011;35045;51.194;7.268;2023-05-19T08:22:35;5.55;;;2.15;;
49217;SDS011;35045;51.194;7.268;2023-05-19T08:25:01;7.63;;;1.73;;
49217;SDS011;35045;51.194;7.268;2023-05-19T08:27:31;5.97;;;1.73;;
49217;SDS011;35045;51.194;7.268;2023-05-19T08:29:57;5.72;;;1.52;;
49217;SDS011;35045;51.194;7.268;2023-05-19T08:32:23;7.53;;;2.00;;
49217;SDS011;35045;51.194;7.268;2023-05-19T08:34:50;5.60;;;1.63;;
49217;SDS011;35045;51.194;7.268;2023-05-19T08:37:16;6.00;;;2.00;;
49217;SDS011;35045;51.194;7.268;2023-05-19T08:39:42;7.95;;;2.20;;
49217;SDS011;35045;51.194;7.268;2023-05-19T08:42:08;5.82;;;2.15;;
49217;SDS011;35045;51.194;7.268;2023-05-19T08:44:35;5.70;;;1.73;;
49217;SDS011;35045;51.194;7.268;2023-05-19T08:47:02;5.35;;;1.70;;
49217;SDS011;35045;51.194;7.268;2023-05-19T08:49:41;8.80;;;1.75;;
49217;SDS011;35045;51.194;7.268;2023-05-19T08:52:38;4.43;;;1.80;;
49217;SDS011;35045;51.194;7.268;2023-05-19T08:58:02;8.18;;;2.10;;
49217;SDS011;35045;51.194;7.268;2023-05-19T09:00:29;5.72;;;2.00;;
49217;SDS011;35045;51.194;7.268;2023-05-19T09:02:56;8.35;;;2.22;;
49217;SDS011;35045;51.194;7.268;2023-05-19T09:05:30;8.13;;;2.00;;
49217;SDS011;35045;51.194;7.268;2023-05-19T09:08:00;5.93;;;1.95;;
49217;SDS011;35045;51.194;7.268;2023-05-19T09:10:30;9.18;;;2.17;;
49217;SDS011;35045;51.194;7.268;2023-05-19T09:12:59;7.13;;;1.80;;
49217;SDS011;35045;51.194;7.268;2023-05-19T09:15:26;7.68;;;1.55;;
49217;SDS011;35045;51.194;7.268;2023-05-19T09:18:04;6.75;;;1.50;;
49217;SDS011;35045;51.194;7.268;2023-05-19T09:20:35;5.13;;;1.98;;
49217;SDS011;35045;51.194;7.268;2023-05-19T09:23:06;5.80;;;1.70;;
49217;SDS011;35045;51.194;7.268;2023-05-19T09:25:33;7.05;;;1.73;;
49217;SDS011;35045;51.194;7.268;2023-05-19T09:27:59;8.55;;;2.22;;
49217;SDS011;35045;51.194;7.268;2023-05-19T09:30:25;9.25;;;1.85;;
49217;SDS011;35045;51.194;7.268;2023-05-19T09:32:52;8.88;;;2.10;;
49217;SDS011;35045;51.194;7.268;2023-05-19T09:35:18;6.90;;;2.20;;
49217;SDS011;35045;51.194;7.268;2023-05-19T09:37:46;5.65;;;1.58;;
49217;SDS011;35045;51.194;7.268;2023-05-19T09:40:13;8.45;;;2.05;;
49217;SDS011;35045;51.194;7.268;2023-05-19T09:42:40;7.03;;;2.28;;
49217;SDS011;35045;51.194;7.268;2023-05-19T09:45:07;6.63;;;2.25;;
49217;SDS011;35045;51.194;7.268;2023-05-19T09:47:34;5.70;;;1.70;;
49217;SDS011;35045;51.194;7.268;2023-05-19T09:50:01;7.50;;;2.03;;
49217;SDS011;35045;51.194;7.268;2023-05-19T09:52:39;7.55;;;2.22;;
49217;SDS011;35045;51.194;7.268;2023-05-19T09:55:09;6.35;;;2.00;;
49217;SDS011;35045;51.194;7.268;2023-05-19T09:57:37;6.97;;;2.28;;
49217;SDS011;35045;51.194;7.268;2023-05-19T10:00:06;9.07;;;2.15;;
49217;SDS011;35045;51.194;7.268;2023-05-19T10:02:45;8.38;;;2.05;;
49217;SDS011;35045;51.194;7.268;2023-05-19T10:05:13;8.95;;;1.90;;
49217;SDS011;35045;51.194;7.268;2023-05-19T10:07:50;6.00;;;1.70;;
49217;SDS011;35045;51.194;7.268;2023-05-19T10:10:17;8.20;;;1.83;;
49217;SDS011;35045;51.194;7.268;2023-05-19T10:12:47;8.48;;;1.80;;
49217;SDS011;35045;51.194;7.268;2023-05-19T10:15:14;5.50;;;1.77;;
49217;SDS011;35045;51.194;7.268;2023-05-19T10:17:43;7.85;;;2.03;;
49217;SDS011;35045;51.194;7.268;2023-05-19T10:20:13;7.93;;;1.85;;
49217;SDS011;35045;51.194;7.268;2023-05-19T10:22:41;6.13;;;1.65;;
49217;SDS011;35045;51.194;7.268;2023-05-19T10:25:09;7.10;;;1.70;;
49217;SDS011;35045;51.194;7.268;2023-05-19T10:27:38;7.32;;;2.20;;
49217;SDS011;35045;51.194;7.268;2023-05-19T10:30:19;6.80;;;2.03;;
49217;SDS011;35045;51.194;7.268;2023-05-19T10:33:02;7.80;;;1.95;;
49217;SDS011;35045;51.194;7.268;2023-05-19T10:38:26;7.43;;;2.15;;
49217;SDS011;35045;51.194;7.268;2023-05-19T10:46:56;4.65;;;1.75;;
49217;SDS011;35045;51.194;7.268;2023-05-19T10:49:23;6.07;;;1.80;;
49217;SDS011;35045;51.194;7.268;2023-05-19T10:51:50;7.72;;;1.98;;
49217;SDS011;35045;51.194;7.268;2023-05-19T10:54:37;6.63;;;1.98;;
49217;SDS011;35045;51.194;7.268;2023-05-19T10:57:05;6.18;;;1.70;;
49217;SDS011;35045;51.194;7.268;2023-05-19T10:59:34;5.60;;;1.80;;
49217;SDS011;35045;51.194;7.268;2023-05-19T11:02:05;6.53;;;2.13;;
49217;SDS011;35045;51.194;7.268;2023-05-19T11:04:45;5.28;;;2.00;;
49217;SDS011;35045;51.194;7.268;2023-05-19T11:07:19;5.28;;;1.88;;
49217;SDS011;35045;51.194;7.268;2023-05-19T11:09:49;6.85;;;1.80;;
49217;SDS011;35045;51.194;7.268;2023-05-19T11:12:20;7.43;;;1.75;;
49217;SDS011;35045;51.194;7.268;2023-05-19T11:14:52;5.90;;;1.63;;
49217;SDS011;35045;51.194;7.268;2023-05-19T11:17:23;5.97;;;1.67;;
49217;SDS011;35045;51.194;7.268;2023-05-19T11:19:53;8.07;;;2.28;;
49217;SDS011;35045;51.194;7.268;2023-05-19T11:22:24;5.97;;;1.80;;
49217;SDS011;35045;51.194;7.268;2023-05-19T11:24:54;5.57;;;1.67;;
49217;SDS011;35045;51.194;7.268;2023-05-19T11:27:28;6.30;;;1.80;;
49217;SDS011;35045;51.194;7.268;2023-05-19T11:32:46;6.80;;;1.92;;
49217;SDS011;35045;51.194;7.268;2023-05-19T11:35:12;5.18;;;1.45;;
49217;SDS011;35045;51.194;7.268;2023-05-19T11:37:40;6.47;;;1.90;;
49217;SDS011;35045;51.194;7.268;2023-05-19T11:40:07;6.82;;;1.92;;
49217;SDS011;35045;51.194;7.268;2023-05-19T11:42:34;7.00;;;1.80;;
49217;SDS011;35045;51.194;7.268;2023-05-19T11:45:01;7.63;;;1.90;;
49217;SDS011;35045;51.194;7.268;2023-05-19T11:47:29;7.63;;;1.70;;
49217;SDS011;35045;51.194;7.268;2023-05-19T11:50:01;4.57;;;1.67;;
49217;SDS011;35045;51.194;7.268;2023-05-19T11:52:27;6.45;;;1.67;;
49217;SDS011;35045;51.194;7.268;2023-05-19T11:54:53;8.13;;;1.92;;
49217;SDS011;35045;51.194;7.268;2023-05-19T11:57:21;8.40;;;1.98;;
49217;SDS011;35045;51.194;7.268;2023-05-19T11:59:47;9.18;;;1.90;;
49217;SDS011;35045;51.194;7.268;2023-05-19T12:02:15;9.15;;;1.90;;
49217;SDS011;35045;51.194;7.268;2023-05-19T12:04:43;6.90;;;1.73;;
49217;SDS011;35045;51.194;7.268;2023-05-19T12:07:10;6.53;;;2.00;;
49217;SDS011;35045;51.194;7.268;2023-05-19T12:09:37;7.25;;;2.00;;
49217;SDS011;35045;51.194;7.268;2023-05-19T12:12:04;8.38;;;2.20;;
49217;SDS011;35045;51.194;7.268;2023-05-19T12:14:30;6.60;;;2.20;;
49217;SDS011;35045;51.194;7.268;2023-05-19T12:17:08;6.93;;;1.85;;
49217;SDS011;35045;51.194;7.268;2023-05-19T12:19:36;7.90;;;1.83;;
49217;SDS011;35045;51.194;7.268;2023-05-19T12:22:04;11.25;;;2.00;;
49217;SDS011;35045;51.194;7.268;2023-05-19T12:24:32;5.47;;;1.60;;
49217;SDS011;35045;51.194;7.268;2023-05-19T12:27:09;5.72;;;1.70;;
49217;SDS011;35045;51.194;7.268;2023-05-19T12:29:38;7.10;;;2.30;;
49217;SDS011;35045;51.194;7.268;2023-05-19T12:32:08;7.63;;;2.05;;
49217;SDS011;35045;51.194;7.268;2023-05-19T12:34:37;5.78;;;1.88;;
49217;SDS011;35045;51.194;7.268;2023-05-19T12:37:04;10.57;;;1.95;;
49217;SDS011;35045;51.194;7.268;2023-05-19T12:39:31;5.95;;;1.70;;
49217;SDS011;35045;51.194;7.268;2023-05-19T12:42:07;7.88;;;2.40;;
49217;SDS011;35045;51.194;7.268;2023-05-19T12:44:41;6.22;;;1.73;;
49217;SDS011;35045;51.194;7.268;2023-05-19T12:47:11;6.85;;;1.90;;
49217;SDS011;35045;51.194;7.268;2023-05-19T12:49:55;6.95;;;2.00;;
49217;SDS011;35045;51.194;7.268;2023-05-19T12:52:24;5.97;;;2.03;;
49217;SDS011;35045;51.194;7.268;2023-05-19T12:54:58;5.95;;;2.20;;
49217;SDS011;35045;51.194;7.268;2023-05-19T12:57:26;7.70;;;2.00;;
49217;SDS011;35045;51.194;7.268;2023-05-19T13:00:15;7.47;;;2.20;;
49217;SDS011;35045;51.194;7.268;2023-05-19T13:05:21;7.45;;;1.80;;
49217;SDS011;35045;51.194;7.268;2023-05-19T13:07:57;5.47;;;1.77;;
49217;SDS011;35045;51.194;7.268;2023-05-19T13:10:29;6.60;;;1.98;;
49217;SDS011;35045;51.194;7.268;2023-05-19T13:12:56;6.50;;;1.80;;
49217;SDS011;35045;51.194;7.268;2023-05-19T13:15:26;6.78;;;1.80;;
49217;SDS011;35045;51.194;7.268;2023-05-19T13:17:54;5.97;;;1.70;;
49217;SDS011;35045;51.194;7.268;2023-05-19T13:20:20;6.10;;;1.90;;
49217;SDS011;35045;51.194;7.268;2023-05-19T13:22:47;8.40;;;2.08;;
49217;SDS011;35045;51.194;7.268;2023-05-19T13:25:13;5.60;;;1.75;;
49217;SDS011;35045;51.194;7.268;2023-05-19T13:27:40;7.28;;;2.10;;
49217;SDS011;35045;51.194;7.268;2023-05-19T13:30:07;6.80;;;1.77;;
49217;SDS011;35045;51.194;7.268;2023-05-19T13:32:33;5.88;;;1.85;;
49217;SDS011;35045;51.194;7.268;2023-05-19T13:35:00;5.93;;;1.70;;
49217;SDS011;35045;51.194;7.268;2023-05-19T13:37:26;5.18;;;1.63;;
49217;SDS011;35045;51.194;7.268;2023-05-19T13:39:53;5.50;;;1.60;;
49217;SDS011;35045;51.194;7.268;2023-05-19T13:42:20;6.38;;;1.50;;
49217;SDS011;35045;51.194;7.268;2023-05-19T13:44:46;4.95;;;1.40;;
49217;SDS011;35045;51.194;7.268;2023-05-19T13:47:12;4.40;;;1.40;;
49217;SDS011;35045;51.194;7.268;2023-05-19T13:49:39;7.07;;;1.75;;
49217;SDS011;35045;51.194;7.268;2023-05-19T13:52:06;5.25;;;1.60;;
49217;SDS011;35045;51.194;7.268;2023-05-19T13:54:32;5.38;;;1.48;;
49217;SDS011;35045;51.194;7.268;2023-05-19T13:56:59;4.43;;;1.85;;
49217;SDS011;35045;51.194;7.268;2023-05-19T13:59:25;5.32;;;1.52;;
49217;SDS011;35045;51.194;7.268;2023-05-19T14:01:52;5.68;;;1.85;;
49217;SDS011;35045;51.194;7.268;2023-05-19T14:04:19;7.07;;;1.80;;
49217;SDS011;35045;51.194;7.268;2023-05-19T14:06:45;5.78;;;1.60;;
49217;SDS011;35045;51.194;7.268;2023-05-19T14:09:11;6.00;;;1.77;;
49217;SDS011;35045;51.194;7.268;2023-05-19T14:11:37;5.20;;;1.80;;
49217;SDS011;35045;51.194;7.268;2023-05-19T14:14:04;6.57;;;1.58;;
49217;SDS011;35045;51.194;7.268;2023-05-19T14:16:30;5.40;;;1.77;;
49217;SDS011;35045;51.194;7.268;2023-05-19T14:18:56;5.35;;;1.27;;
49217;SDS011;35045;51.194;7.268;2023-05-19T14:21:23;4.13;;;1.27;;
49217;SDS011;35045;51.194;7.268;2023-05-19T14:23:49;6.18;;;1.67;;
49217;SDS011;35045;51.194;7.268;2023-05-19T14:26:15;6.43;;;1.45;;
49217;SDS011;35045;51.194;7.268;2023-05-19T14:28:41;4.55;;;1.30;;
49217;SDS011;35045;51.194;7.268;2023-05-19T14:31:11;4.70;;;1.40;;
49217;SDS011;35045;51.194;7.268;2023-05-19T14:33:38;6.15;;;1.60;;
49217;SDS011;35045;51.194;7.268;2023-05-19T14:36:07;5.38;;;1.40;;
49217;SDS011;35045;51.194;7.268;2023-05-19T14:38:33;5.47;;;1.58;;
49217;SDS011;35045;51.194;7.268;2023-05-19T14:41:00;5.63;;;1.60;;
49217;SDS011;35045;51.194;7.268;2023-05-19T14:43:27;7.88;;;1.60;;
49217;SDS011;35045;51.194;7.268;2023-05-19T14:45:53;5.75;;;1.42;;
49217;SDS011;35045;51.194;7.268;2023-05-19T14:48:19;5.13;;;1.50;;
49217;SDS011;35045;51.194;7.268;2023-05-19T14:50:46;5.50;;;1.52;;
49217;SDS011;35045;51.194;7.268;2023-05-19T14:53:15;5.82;;;1.50;;
49217;SDS011;35045;51.194;7.268;2023-05-19T14:55:42;5.50;;;1.55;;
49217;SDS011;35045;51.194;7.268;2023-05-19T14:58:08;5.20;;;1.50;;
49217;SDS011;35045;51.194;7.268;2023-05-19T15:00:41;4.95;;;1.35;;
49217;SDS011;35045;51.194;7.268;2023-05-19T15:03:08;6.18;;;1.65;;
49217;SDS011;35045;51.194;7.268;2023-05-19T15:05:35;4.68;;;1.58;;
49217;SDS011;35045;51.194;7.268;2023-05-19T15:08:02;5.35;;;1.30;;
49217;SDS011;35045;51.194;7.268;2023-05-19T15:10:30;5.20;;;1.50;;
49217;SDS011;35045;51.194;7.268;2023-05-19T15:12:56;5.55;;;1.50;;
49217;SDS011;35045;51.194;7.268;2023-05-19T15:15:24;5.40;;;1.40;;
49217;SDS011;35045;51.194;7.268;2023-05-19T15:17:50;5.78;;;1.50;;
49217;SDS011;35045;51.194;7.268;2023-05-19T15:20:16;4.65;;;1.33;;
49217;SDS011;35045;51.194;7.268;2023-05-19T15:22:42;6.15;;;1.67;;